Lulu Pass Weather Station

This weather station provides temperature, relative humidity (RH), wind speed, gust or max wind speed, and wind direction at 10014ft near Lulu Pass at the head of Fisher Creek. This data can be used with temperature and precipitation data from the Fisher Creek SNOTEL site.

This weather station was purchased by the Friends of the Avalanche Center.

If the data has not been updated recently you can view it directly on datagarrison.com

Elevation
10014ft
Jump to table bottom
Date Time Temperature
deg F
RH, % Wind Speed Wind Gust Wind Direction
01/27/21 22:00 10.3 93 17 33 SW - 204
01/27/21 21:00 10.3 92 18 35 SW - 208
01/27/21 20:00 9.7 92 17 34 SW - 211
01/27/21 19:00 9.4 92 19 40 SW - 205
01/27/21 18:00 9.0 92 18 32 SW - 212
01/27/21 17:00 9.3 92 15 30 SW - 215
01/27/21 16:00 9.3 92 15 30 SW - 219
01/27/21 15:00 9.7 91 15 35 SW - 219
01/27/21 14:00 8.2 91 16 31 SW - 218
01/27/21 13:00 8.2 90 15 30 SW - 212
01/27/21 12:00 7.6 90 14 40 SW - 216
01/27/21 11:00 6.9 90 11 30 SW - 223
01/27/21 10:00 6.0 91 6 29 W - 270
01/27/21 09:00 5.1 90 6 22 SW - 233
01/27/21 08:00 4.4 91 8 21 SW - 213
01/27/21 07:00 4.1 90 7 18 SW - 234
01/27/21 06:00 3.3 90 8 31 SW - 229
01/27/21 05:00 3.2 90 8 23 SW - 232
01/27/21 04:00 3.1 90 16 33 SW - 211
01/27/21 03:00 3.4 90 15 32 S - 198
01/27/21 02:00 3.1 90 12 24 SW - 208
01/27/21 01:00 2.6 90 7 14 SW - 239
01/27/21 00:00 2.9 90 7 18 SW - 234
01/26/21 23:00 3.9 90 6 14 W - 265
01/26/21 22:00 4.7 91 4 10 W - 265
01/26/21 21:00 5.7 91 6 15 W - 254
01/26/21 20:00 6.2 91 6 14 W - 253
01/26/21 19:00 6.2 91 7 19 W - 257
01/26/21 18:00 6.4 91 6 19 W - 291
01/26/21 17:00 6.7 91 5 13 NW - 305
01/26/21 16:00 7.3 91 5 14 NW - 298
01/26/21 15:00 8.5 90 4 11 W - 258
01/26/21 14:00 8.0 90 5 10 SW - 234
01/26/21 13:00 7.1 89 4 12 SW - 226
01/26/21 12:00 8.7 89 6 10 S - 185
01/26/21 11:00 5.5 89 5 9 S - 173
01/26/21 10:00 6.0 89 3 6 S - 160
01/26/21 09:00 4.2 90 6 10 SE - 154
01/26/21 08:00 1.5 89 7 11 SE - 156
01/26/21 07:00 0.5 89 7 11 SE - 153
01/26/21 06:00 1.2 89 7 13 SE - 152
01/26/21 05:00 1.5 89 4 9 SE - 140
01/26/21 04:00 0.9 89 6 11 SE - 147
01/26/21 03:00 1.5 89 4 10 E - 111
01/26/21 02:00 2.0 89 3 8 E - 70
01/26/21 01:00 2.5 89 3 10 NE - 60
01/26/21 00:00 3.1 89 4 10 E - 80
01/25/21 23:00 3.7 90 4 13 E - 74
01/25/21 22:00 3.8 89 4 13 NE - 65
01/25/21 21:00 3.9 89 3 11 NE - 52